Addy, WA (99101)

4:11 PM PST on January 26, 2015 (GMT -0800)
Deer Park | Change Station
CLOSE
Current Station
Airport
Location: Deer Park,
Elevation: 2205 ft
Nearby Weather Stations

Elev 2205 ft 47.97 °N, 117.42 °W | Updated 18 minutes ago

Partly Cloudy
Partly Cloudy
46 °F
Feels Like 46 °F
N
0
Wind Variable Wind from North

Today
High -- | Low -- °F
--% Chance of Precip.
Yesterday
High -- | Low -- °F
Precip. -- in
7:27 AM 4:41 PM
Waxing Crescent, 48% visible
Pressure 30.06 in
Visibility 10.0 miles
Clouds Clear
Dew Point 39 °F
Humidity 76%
Rainfall 0.00 in
Snow Depth Not available.
UV 0 out of 12
Pollen .80 out of 12
Air Quality Not available.
Flu Activity Not available.
METAR KDEW 262353Z AUTO 00000KT 10SM CLR 08/04 A3002 RMK AO2 SLP177 T00780039 10083 20033 56008

More Conditions Fewer Conditions

Pressure 30.06 in
Visibility 10.0 miles
Clouds Clear
Dew Point 39 °F
Humidity 76%
Rainfall 0.00 in
Snow Depth Not available.
UV 0 out of 12
Pollen .80 out of 12
Air Quality Not available.
Flu Activity Not available.
METAR KDEW 262353Z AUTO 00000KT 10SM CLR 08/04 A3002 RMK AO2 SLP177 T00780039 10083 20033 56008

More Conditions Fewer Conditions

Nowcast | as of 2:16 PM PST on January 26, 2015

Expect low clouds and areas of fog will continue in the northern valleys through the aternoon. Expect some improving conditions late afternoon. Meanwhile the mountains will remain in the sun.

×

10-Day Weather Forecast

Almanac

Astronomy

Jan. 26, 2015 Rise Set
Actual Time
Civil Twilight
Nautical Twilight
Astronomical Twilight
Moon
Length of Visible Light
Length of Day
Tomorrow will be .
, % of the Moon is Illuminated

Today's Extremes

State Highs State Lows

Community

WunderPhotos

Upload Photos

1,790,420 photos uploaded!

WunderBlogs® & News

Nearby

Air Quality

  Air Quality AQ Index Pollutant
Not available.

Snow Depth

Station Depth Elevation

Earthquake Activity

City Distance Mag. Time & Date
Minimum magnitude displayed is 2.5.

Coastal Water Temperatures

Place Temperature

Nearby Weather Stations